createdAt,value
2018-02-09T00:01:57.983Z,49.40
2018-02-09T00:04:26.308Z,50.63
2018-02-09T00:06:54.672Z,50.05
2018-02-09T00:09:22.268Z,48.47
2018-02-09T00:11:50.628Z,50.22
2018-02-09T00:14:18.211Z,48.85
2018-02-09T00:16:45.800Z,47.97
2018-02-09T00:19:13.360Z,49.17
2018-02-09T00:21:40.948Z,52.30
2018-02-09T00:24:08.547Z,50.00
2018-02-09T00:26:36.103Z,46.42
2018-02-09T00:29:04.477Z,49.17
2018-02-09T00:31:32.804Z,50.97
2018-02-09T00:34:00.393Z,51.03
2018-02-09T00:36:28.024Z,48.05
2018-02-09T00:38:55.609Z,48.80
2018-02-09T00:41:23.180Z,50.60
2018-02-09T00:43:50.788Z,51.10
2018-02-09T00:46:18.386Z,50.28
2018-02-09T00:48:46.052Z,49.17
2018-02-09T00:51:13.653Z,50.30
2018-02-09T00:53:41.972Z,52.25
2018-02-09T00:56:09.563Z,48.80
2018-02-09T00:58:37.155Z,51.03
2018-02-09T01:01:04.735Z,49.78
2018-02-09T01:03:32.338Z,50.92
2018-02-09T01:05:59.893Z,50.20
2018-02-09T01:08:27.523Z,50.92
2018-02-09T01:10:55.071Z,50.53
2018-02-09T01:13:22.633Z,51.03
2018-02-09T01:15:50.253Z,52.85
2018-02-09T01:18:17.863Z,53.03
2018-02-09T01:20:45.457Z,49.70
2018-02-09T01:23:13.022Z,52.83
2018-02-09T01:25:40.629Z,52.62
2018-02-09T01:28:08.964Z,52.78
2018-02-09T01:30:36.522Z,53.13
2018-02-09T01:33:04.111Z,53.22
2018-02-09T01:35:32.443Z,51.88
2018-02-09T01:38:00.033Z,51.37
2018-02-09T01:40:27.602Z,51.40
2018-02-09T01:42:55.221Z,55.83
2018-02-09T01:45:22.787Z,52.72
2018-02-09T01:47:50.347Z,53.58
2018-02-09T01:50:17.968Z,51.58
2018-02-09T01:52:46.298Z,50.25
2018-02-09T01:55:13.849Z,51.80
2018-02-09T01:57:41.539Z,53.70
2018-02-09T02:00:09.116Z,51.80
2018-02-09T02:02:36.692Z,53.47
2018-02-09T02:05:04.302Z,54.05
2018-02-09T02:07:31.890Z,51.42
2018-02-09T02:09:59.541Z,54.17
2018-02-09T02:12:31.090Z,54.65
2018-02-09T02:15:00.906Z,53.47
2018-02-09T02:17:30.838Z,52.58
2018-02-09T02:20:00.631Z,52.08
2018-02-09T02:22:30.231Z,55.05
2018-02-09T02:25:01.423Z,54.35
2018-02-09T02:27:31.794Z,54.03
2018-02-09T02:30:01.761Z,52.58
2018-02-09T02:32:31.531Z,55.15
2018-02-09T02:35:01.169Z,53.38
2018-02-09T02:37:31.025Z,54.33
2018-02-09T02:40:00.676Z,50.63
2018-02-09T02:42:31.432Z,56.85
2018-02-09T02:45:02.502Z,53.47
2018-02-09T02:47:33.412Z,53.78
2018-02-09T02:50:03.107Z,53.95
2018-02-09T02:52:34.025Z,54.35
2018-02-09T02:55:03.713Z,54.15
2018-02-09T02:57:34.288Z,53.00
2018-02-09T03:00:05.269Z,51.70
2018-02-09T03:02:35.766Z,52.30
2018-02-09T03:05:07.011Z,52.20
2018-02-09T03:07:36.743Z,52.55
2018-02-09T03:10:07.380Z,51.97
2018-02-09T03:12:37.085Z,49.38
2018-02-09T03:15:07.892Z,53.63
2018-02-09T03:17:37.141Z,50.90
2018-02-09T03:20:07.771Z,49.63
2018-02-09T03:22:38.961Z,51.40
2018-02-09T03:25:08.482Z,51.88
2018-02-09T03:27:37.766Z,54.60
2018-02-09T03:30:09.069Z,52.25
2018-02-09T03:32:40.225Z,50.10
2018-02-09T03:35:10.538Z,55.63
2018-02-09T03:37:41.103Z,52.85
2018-02-09T03:40:12.604Z,51.67
2018-02-09T03:42:42.414Z,52.72
2018-02-09T03:45:13.252Z,53.05
2018-02-09T03:47:42.942Z,50.72
2018-02-09T03:50:12.897Z,50.95
2018-02-09T03:52:43.220Z,51.05
2018-02-09T03:55:13.696Z,51.72
2018-02-09T03:57:43.575Z,51.15
2018-02-09T04:00:13.301Z,54.15
2018-02-09T04:02:43.544Z,53.33
2018-02-09T04:05:13.203Z,54.03
2018-02-09T04:07:42.731Z,51.97
2018-02-09T04:10:12.372Z,51.00
2018-02-09T04:12:43.549Z,53.95
2018-02-09T04:15:13.091Z,50.28
2018-02-09T04:17:42.874Z,50.03
2018-02-09T04:20:13.345Z,53.25
2018-02-09T04:22:43.034Z,51.00
2018-02-09T04:25:13.597Z,51.50
2018-02-09T04:27:50.533Z,49.67
2018-02-09T04:30:21.032Z,51.03
2018-02-09T04:32:50.661Z,51.25
2018-02-09T04:35:20.360Z,53.95
2018-02-09T04:37:50.131Z,51.20
2018-02-09T04:40:20.879Z,51.97
2018-02-09T04:42:51.260Z,50.17
2018-02-09T04:45:21.019Z,51.08
2018-02-09T04:47:50.392Z,52.38
2018-02-09T04:50:18.020Z,48.80
2018-02-09T04:52:45.598Z,51.70
2018-02-09T04:55:13.968Z,49.83
2018-02-09T04:57:41.539Z,51.28
2018-02-09T05:00:09.152Z,52.22
2018-02-09T05:02:37.492Z,50.10
2018-02-09T05:05:05.870Z,51.03
2018-02-09T05:07:34.196Z,54.88
2018-02-09T05:10:01.841Z,51.80
2018-02-09T05:12:29.400Z,49.55
2018-02-09T05:14:56.948Z,51.58
2018-02-09T05:17:24.552Z,53.00
2018-02-09T05:19:52.135Z,48.83
2018-02-09T05:22:19.726Z,52.85
2018-02-09T05:24:47.317Z,51.70
2018-02-09T05:27:14.880Z,51.22
2018-02-09T05:29:42.479Z,52.42
2018-02-09T05:32:10.065Z,52.50
2018-02-09T05:34:37.669Z,52.50
2018-02-09T05:37:05.296Z,52.38
2018-02-09T05:39:32.868Z,50.75
2018-02-09T05:42:00.444Z,53.80
2018-02-09T05:44:28.040Z,51.35
2018-02-09T05:46:55.587Z,52.40
2018-02-09T05:49:23.204Z,51.53
2018-02-09T05:51:50.763Z,51.13
2018-02-09T05:54:18.376Z,51.75
2018-02-09T05:56:46.062Z,48.05
2018-02-09T05:59:13.591Z,54.50
2018-02-09T06:01:41.198Z,48.13
2018-02-09T06:04:09.524Z,54.70
2018-02-09T06:06:37.179Z,50.95
2018-02-09T06:09:05.065Z,52.72
2018-02-09T06:11:32.636Z,52.47
2018-02-09T06:14:00.236Z,50.22
2018-02-09T06:16:28.577Z,51.05
2018-02-09T06:18:56.202Z,54.70
2018-02-09T06:21:23.792Z,49.83
2018-02-09T06:23:51.710Z,48.60
2018-02-09T06:26:19.277Z,51.35
2018-02-09T06:28:46.925Z,52.78
2018-02-09T06:31:15.281Z,53.25
2018-02-09T06:33:42.921Z,52.15
2018-02-09T06:36:10.535Z,53.63
2018-02-09T06:38:38.921Z,55.63
2018-02-09T06:41:06.507Z,52.47
2018-02-09T06:43:34.179Z,53.25
2018-02-09T06:46:01.754Z,54.15
2018-02-09T06:48:29.521Z,55.85
2018-02-09T06:50:57.122Z,51.60
2018-02-09T06:53:25.455Z,54.20
2018-02-09T06:58:27.006Z,53.17
2018-02-09T07:00:54.639Z,52.55
2018-02-09T07:03:22.959Z,50.45
2018-02-09T07:05:50.535Z,53.90
2018-02-09T07:08:18.151Z,52.05
2018-02-09T07:10:45.764Z,52.03
2018-02-09T07:13:13.339Z,51.65
2018-02-09T07:15:40.995Z,52.62
2018-02-09T07:18:08.588Z,51.00
2018-02-09T07:20:36.234Z,55.88
2018-02-09T07:23:04.581Z,54.13
2018-02-09T07:25:32.284Z,52.00
2018-02-09T07:27:59.848Z,54.55
2018-02-09T07:30:27.536Z,54.78
2018-02-09T07:32:55.094Z,53.33
2018-02-09T07:35:22.720Z,53.15
2018-02-09T07:37:51.081Z,53.70
2018-02-09T07:40:18.788Z,54.92
2018-02-09T07:42:46.448Z,50.95
2018-02-09T07:45:14.105Z,58.58
2018-02-09T07:47:41.803Z,57.65
2018-02-09T07:50:09.843Z,53.45
2018-02-09T07:52:37.451Z,56.15
2018-02-09T07:55:05.254Z,56.83
2018-02-09T07:57:40.104Z,54.13
2018-02-09T08:00:08.906Z,56.42
2018-02-09T08:02:36.569Z,55.45
2018-02-09T08:05:04.154Z,53.58
2018-02-09T08:07:31.796Z,54.00
2018-02-09T08:09:59.373Z,53.17
2018-02-09T08:12:26.962Z,53.67
2018-02-09T08:14:54.680Z,54.53
2018-02-09T08:17:22.297Z,56.45
2018-02-09T08:19:49.908Z,54.60
2018-02-09T08:22:17.576Z,55.78
2018-02-09T08:24:45.289Z,55.42
2018-02-09T08:27:12.864Z,53.08
2018-02-09T08:29:41.467Z,53.95
2018-02-09T08:32:09.386Z,51.22
2018-02-09T08:34:37.436Z,57.67
2018-02-09T08:37:04.993Z,51.75
2018-02-09T08:39:32.595Z,50.30
2018-02-09T08:42:00.348Z,54.65
2018-02-09T08:44:28.392Z,53.95
2018-02-09T08:46:59.791Z,55.12
2018-02-09T08:49:28.104Z,57.83
2018-02-09T08:51:57.930Z,54.20
2018-02-09T08:54:25.693Z,56.22
2018-02-09T08:56:53.278Z,54.30
2018-02-09T08:59:21.227Z,54.53
2018-02-09T09:01:48.881Z,54.65
2018-02-09T09:04:16.469Z,50.53
2018-02-09T09:06:44.278Z,51.92
2018-02-09T09:09:12.604Z,53.67
2018-02-09T09:11:40.232Z,52.67
2018-02-09T09:14:08.022Z,52.17
2018-02-09T09:16:35.671Z,52.78
2018-02-09T09:19:03.240Z,52.38
2018-02-09T09:21:30.832Z,52.22
2018-02-09T09:23:58.441Z,54.38
2018-02-09T09:26:26.854Z,50.35
2018-02-09T09:28:54.683Z,55.55
2018-02-09T09:31:23.017Z,52.83
2018-02-09T09:33:50.604Z,52.25
2018-02-09T09:36:18.217Z,56.90
2018-02-09T09:38:45.771Z,56.53
2018-02-09T09:41:13.382Z,56.10
2018-02-09T09:43:40.964Z,54.65
2018-02-09T09:46:09.366Z,51.00
2018-02-09T09:48:37.162Z,48.22
2018-02-09T09:51:04.859Z,52.38
2018-02-09T09:53:32.544Z,54.28
2018-02-09T09:56:00.139Z,49.67
2018-02-09T09:58:27.745Z,49.70
2018-02-09T10:00:55.896Z,52.78
2018-02-09T10:03:23.471Z,51.92
2018-02-09T10:05:51.877Z,50.25
2018-02-09T10:08:20.228Z,50.25
2018-02-09T10:10:47.828Z,51.88
2018-02-09T10:13:16.245Z,49.15
2018-02-09T10:15:43.817Z,51.15
2018-02-09T10:18:11.393Z,50.35
2018-02-09T10:20:39.028Z,48.10
2018-02-09T10:23:06.624Z,51.42
2018-02-09T10:25:34.214Z,49.65
2018-02-09T10:28:01.808Z,50.60
2018-02-09T10:30:29.457Z,51.25
2018-02-09T10:32:57.060Z,50.30
2018-02-09T10:35:24.692Z,52.45
2018-02-09T10:37:52.310Z,51.00
2018-02-09T10:40:20.699Z,50.47
2018-02-09T10:42:49.075Z,48.80
2018-02-09T10:45:17.455Z,46.70
2018-02-09T10:47:45.372Z,47.38
2018-02-09T10:50:12.988Z,46.30
2018-02-09T10:52:41.419Z,46.72
2018-02-09T10:55:09.212Z,46.08
2018-02-09T10:57:36.782Z,45.08
2018-02-09T11:00:05.152Z,45.80
2018-02-09T11:02:32.742Z,46.03
2018-02-09T11:05:01.092Z,44.90
2018-02-09T11:07:28.708Z,45.95
2018-02-09T11:09:56.368Z,42.85
2018-02-09T11:12:23.956Z,42.97
2018-02-09T11:14:51.546Z,45.55
2018-02-09T11:17:20.002Z,45.25
2018-02-09T11:19:47.572Z,43.75
2018-02-09T11:22:15.180Z,42.20
2018-02-09T11:24:42.788Z,45.30
2018-02-09T11:27:10.373Z,42.47
2018-02-09T11:29:38.117Z,44.13
2018-02-09T11:32:05.729Z,46.60
2018-02-09T11:34:33.399Z,43.35
2018-02-09T11:37:00.976Z,44.30
2018-02-09T11:39:28.570Z,42.95
2018-02-09T11:41:56.212Z,43.80
2018-02-09T11:44:23.829Z,44.35
2018-02-09T11:46:51.500Z,45.53
2018-02-09T11:49:19.369Z,48.08
2018-02-09T11:51:47.244Z,46.13
2018-02-09T11:54:15.633Z,41.58
2018-02-09T11:56:43.634Z,43.42
2018-02-09T11:59:11.313Z,45.67
2018-02-09T12:01:38.984Z,46.50
2018-02-09T12:04:06.627Z,41.95
2018-02-09T12:06:34.295Z,42.92
2018-02-09T12:09:01.878Z,43.35
2018-02-09T12:11:30.243Z,42.88
2018-02-09T12:13:58.004Z,45.20
2018-02-09T12:16:25.613Z,42.25
2018-02-09T12:18:53.296Z,44.72
2018-02-09T12:21:20.912Z,44.70
2018-02-09T12:23:49.313Z,45.25
2018-02-09T12:26:16.888Z,42.75
2018-02-09T12:28:44.534Z,46.58
2018-02-09T12:31:12.197Z,44.95
2018-02-09T12:33:39.897Z,41.88
2018-02-09T12:36:07.515Z,43.87
2018-02-09T12:38:35.384Z,41.08
2018-02-09T12:41:03.118Z,42.83
2018-02-09T12:43:31.163Z,41.95
2018-02-09T12:45:58.743Z,43.33
2018-02-09T12:48:26.336Z,40.03
2018-02-09T12:50:54.703Z,39.78
2018-02-09T12:53:23.077Z,43.80
2018-02-09T12:55:50.695Z,39.45
2018-02-09T12:58:18.349Z,43.20
2018-02-09T13:00:45.926Z,41.30
2018-02-09T13:03:13.528Z,42.72
2018-02-09T13:05:41.096Z,40.05
2018-02-09T13:08:09.465Z,39.85
2018-02-09T13:10:37.156Z,41.00
2018-02-09T13:13:06.571Z,40.90
2018-02-09T13:15:34.263Z,40.78
2018-02-09T13:18:02.851Z,40.53
2018-02-09T13:20:31.668Z,41.05
2018-02-09T13:23:11.376Z,42.80
2018-02-09T13:25:38.989Z,41.13
2018-02-09T13:28:06.692Z,42.65
2018-02-09T13:30:34.263Z,40.15
2018-02-09T13:33:13.758Z,46.28
2018-02-09T13:35:42.100Z,44.67
2018-02-09T13:38:09.726Z,42.62
2018-02-09T13:40:37.343Z,40.58
2018-02-09T13:43:04.934Z,40.90
2018-02-09T13:45:33.358Z,37.13
2018-02-09T13:48:02.695Z,38.88
2018-02-09T13:50:31.112Z,39.90
2018-02-09T13:52:58.673Z,40.97
2018-02-09T13:55:26.272Z,36.95
2018-02-09T13:57:53.906Z,42.95
2018-02-09T14:00:21.509Z,40.55
2018-02-09T14:02:49.100Z,42.10
2018-02-09T14:05:16.741Z,40.83
2018-02-09T14:07:44.308Z,39.20
2018-02-09T14:10:12.658Z,42.13
2018-02-09T14:12:40.665Z,40.12
2018-02-09T14:15:09.091Z,38.83
2018-02-09T14:17:36.713Z,39.78
2018-02-09T14:20:04.354Z,40.58
2018-02-09T14:22:31.921Z,40.58
2018-02-09T14:25:00.367Z,40.75
2018-02-09T14:27:27.953Z,36.85
2018-02-09T14:29:56.351Z,39.22
2018-02-09T14:32:23.993Z,39.35
2018-02-09T14:34:51.655Z,36.03
2018-02-09T14:37:19.218Z,38.25
2018-02-09T14:39:46.844Z,39.17
2018-02-09T14:42:14.444Z,42.20
2018-02-09T14:44:42.067Z,39.33
2018-02-09T14:47:09.648Z,39.85
2018-02-09T14:49:37.392Z,37.28
2018-02-09T14:52:04.997Z,37.67
2018-02-09T14:54:32.552Z,37.95
2018-02-09T14:57:00.184Z,37.63
2018-02-09T14:59:27.929Z,37.97
2018-02-09T15:01:55.491Z,38.78
2018-02-09T15:04:23.062Z,36.22
2018-02-09T15:06:51.431Z,40.05
2018-02-09T15:09:19.196Z,51.42
2018-02-09T15:11:46.769Z,49.55
2018-02-09T15:14:14.396Z,51.88
2018-02-09T15:16:42.683Z,50.10
2018-02-09T15:19:10.293Z,53.92
2018-02-09T15:21:37.896Z,47.65
2018-02-09T15:24:06.255Z,50.15
2018-02-09T15:26:33.867Z,47.13
2018-02-09T15:29:01.471Z,49.60
2018-02-09T15:31:29.116Z,51.70
2018-02-09T15:33:56.724Z,50.67
2018-02-09T15:36:24.372Z,48.45
2018-02-09T15:38:52.757Z,47.08
2018-02-09T15:41:21.102Z,47.08
2018-02-09T15:43:48.709Z,47.40
2018-02-09T15:46:17.158Z,45.75
2018-02-09T15:48:44.730Z,48.95
2018-02-09T15:51:12.369Z,47.15
2018-02-09T15:53:40.009Z,48.97
2018-02-09T15:56:11.780Z,47.97
2018-02-09T15:58:39.453Z,49.97
2018-02-09T16:01:07.016Z,44.20
2018-02-09T16:03:34.678Z,48.45
2018-02-09T16:06:02.352Z,50.60
2018-02-09T16:08:29.903Z,46.37
2018-02-09T16:10:57.529Z,46.65
2018-02-09T16:13:25.163Z,44.85
2018-02-09T16:15:53.519Z,48.80
2018-02-09T16:18:21.474Z,47.05
2018-02-09T16:20:49.091Z,48.85
2018-02-09T16:23:16.737Z,47.40
2018-02-09T16:25:45.078Z,45.72
2018-02-09T16:28:12.691Z,46.53
2018-02-09T16:30:41.308Z,47.65
2018-02-09T16:33:08.930Z,42.95
2018-02-09T16:35:36.506Z,47.15
2018-02-09T16:38:04.065Z,43.25
2018-02-09T16:40:31.673Z,46.40
2018-02-09T16:42:59.309Z,43.75
2018-02-09T16:45:26.932Z,44.83
2018-02-09T16:47:55.372Z,47.28
2018-02-09T16:50:22.956Z,47.67
2018-02-09T16:52:50.530Z,47.05
2018-02-09T16:55:18.168Z,47.00
2018-02-09T16:57:45.750Z,45.17
2018-02-09T17:00:14.147Z,47.00
2018-02-09T17:02:41.721Z,45.42
2018-02-09T17:05:09.322Z,47.92
2018-02-09T17:07:36.970Z,46.72
2018-02-09T17:10:04.681Z,44.83
2018-02-09T17:12:32.301Z,45.95
2018-02-09T17:14:59.947Z,46.60
2018-02-09T17:17:27.515Z,46.85
2018-02-09T17:19:55.113Z,44.97
2018-02-09T17:22:22.789Z,43.87
2018-02-09T17:24:50.383Z,42.15
2018-02-09T17:27:17.977Z,41.92
2018-02-09T17:29:45.576Z,44.42
2018-02-09T17:32:13.969Z,44.15
2018-02-09T17:34:41.536Z,43.13
2018-02-09T17:37:09.868Z,39.00
2018-02-09T17:39:37.468Z,42.10
2018-02-09T17:42:05.800Z,41.70
2018-02-09T17:44:33.409Z,38.83
2018-02-09T17:47:01.012Z,39.95
2018-02-09T17:49:28.674Z,39.58
2018-02-09T17:51:56.240Z,39.83
2018-02-09T17:54:24.533Z,35.42
2018-02-09T17:56:52.141Z,39.85
2018-02-09T17:59:19.705Z,35.30
2018-02-09T18:01:47.294Z,40.00
2018-02-09T18:04:14.900Z,40.97
2018-02-09T18:06:42.521Z,39.95
2018-02-09T18:09:10.159Z,43.08
2018-02-09T18:11:38.595Z,41.22
2018-02-09T18:14:06.180Z,38.35
2018-02-09T18:16:33.809Z,39.22
2018-02-09T18:19:01.397Z,35.95
2018-02-09T18:21:29.808Z,37.30
2018-02-09T18:23:57.600Z,40.33
2018-02-09T18:26:25.155Z,35.38
2018-02-09T18:28:52.759Z,40.17
2018-02-09T18:31:20.320Z,37.97
2018-02-09T18:33:48.693Z,37.13
2018-02-09T18:36:16.332Z,37.15
2018-02-09T18:38:43.977Z,36.40
2018-02-09T18:41:12.335Z,37.15
2018-02-09T18:43:39.923Z,36.47
2018-02-09T18:46:07.517Z,37.60
2018-02-09T18:48:35.084Z,35.83
2018-02-09T18:51:02.690Z,39.83
2018-02-09T18:53:30.254Z,35.90
2018-02-09T18:55:57.844Z,39.92
2018-02-09T18:58:25.405Z,36.17
2018-02-09T19:00:54.948Z,34.25
2018-02-09T19:03:22.574Z,33.35
2018-02-09T19:05:50.178Z,35.33
2018-02-09T19:08:17.795Z,37.67
2018-02-09T19:10:45.360Z,35.10
2018-02-09T19:13:12.998Z,36.28
2018-02-09T19:15:40.584Z,34.60
2018-02-09T19:18:08.199Z,34.97
2018-02-09T19:20:35.752Z,35.88
2018-02-09T19:23:03.492Z,34.97
2018-02-09T19:25:31.125Z,34.10
2018-02-09T19:27:58.733Z,34.20
2018-02-09T19:30:27.069Z,33.47
2018-02-09T19:32:54.646Z,36.97
2018-02-09T19:35:23.072Z,34.58
2018-02-09T19:37:50.695Z,33.95
2018-02-09T19:40:18.345Z,36.22
2018-02-09T19:42:45.943Z,35.58
2018-02-09T19:45:13.516Z,36.22
2018-02-09T19:47:41.138Z,33.30
2018-02-09T19:50:08.749Z,35.70
2018-02-09T19:52:36.383Z,36.72
2018-02-09T19:55:04.712Z,36.58
2018-02-09T19:57:32.348Z,37.30
2018-02-09T19:59:59.984Z,39.17
2018-02-09T20:02:27.606Z,35.15
2018-02-09T20:04:55.210Z,36.10
2018-02-09T20:07:23.618Z,36.33
2018-02-09T20:09:51.249Z,35.25
2018-02-09T20:12:18.867Z,36.17
2018-02-09T20:14:46.482Z,35.03
2018-02-09T20:17:14.810Z,38.53
2018-02-09T20:19:42.374Z,38.80
2018-02-09T20:22:10.009Z,38.03
2018-02-09T20:24:37.610Z,37.90
2018-02-09T20:27:05.213Z,35.63
2018-02-09T20:29:32.776Z,36.38
2018-02-09T20:32:00.385Z,38.30
2018-02-09T20:34:27.986Z,37.17
2018-02-09T20:36:55.649Z,35.97
2018-02-09T20:39:24.037Z,36.13
2018-02-09T20:41:52.370Z,36.67
2018-02-09T20:44:19.981Z,40.55
2018-02-09T20:46:47.548Z,39.92
2018-02-09T20:49:15.144Z,39.38
2018-02-09T20:51:42.745Z,40.10
2018-02-09T20:54:11.072Z,36.50
2018-02-09T20:56:38.665Z,36.53
2018-02-09T20:59:06.301Z,41.92
2018-02-09T21:01:35.836Z,38.55
2018-02-09T21:04:03.438Z,39.85
2018-02-09T21:06:31.044Z,39.08
2018-02-09T21:08:58.602Z,38.60
2018-02-09T21:11:26.210Z,38.80
2018-02-09T21:13:54.541Z,38.80
2018-02-09T21:16:22.170Z,37.08
2018-02-09T21:18:49.744Z,39.53
2018-02-09T21:21:17.382Z,39.85
2018-02-09T21:23:44.987Z,36.88
2018-02-09T21:26:12.616Z,43.22
2018-02-09T21:28:40.213Z,39.10
2018-02-09T21:31:07.818Z,41.70
2018-02-09T21:33:36.173Z,36.95
2018-02-09T21:36:04.587Z,40.12
2018-02-09T21:38:32.200Z,40.88
2018-02-09T21:40:59.758Z,37.95
2018-02-09T21:43:27.376Z,41.50
2018-02-09T21:45:55.002Z,39.63
2018-02-09T21:48:22.596Z,38.42
2018-02-09T21:50:50.156Z,40.47
2018-02-09T21:53:17.784Z,37.97
2018-02-09T21:55:45.377Z,41.35
2018-02-09T21:58:13.765Z,39.83
2018-02-09T22:00:41.375Z,37.70
2018-02-09T22:03:08.935Z,39.55
2018-02-09T22:05:36.559Z,38.88
2018-02-09T22:08:04.129Z,38.72
2018-02-09T22:10:31.782Z,41.58
2018-02-09T22:12:59.402Z,45.08
2018-02-09T22:15:27.027Z,43.90
2018-02-09T22:17:54.601Z,41.35
2018-02-09T22:20:22.160Z,37.90
2018-02-09T22:22:49.761Z,40.17
2018-02-09T22:25:18.220Z,38.13
2018-02-09T22:27:45.825Z,38.72
2018-02-09T22:30:13.413Z,38.35
2018-02-09T22:32:41.026Z,41.40
2018-02-09T22:35:09.372Z,41.33
2018-02-09T22:37:36.967Z,43.20
2018-02-09T22:40:05.342Z,39.20
2018-02-09T22:42:33.717Z,41.35
2018-02-09T22:45:02.126Z,42.60
2018-02-09T22:47:29.710Z,40.25
2018-02-09T22:49:57.342Z,42.55
2018-02-09T22:52:24.947Z,39.35
2018-02-09T22:54:52.586Z,42.53
2018-02-09T22:57:20.192Z,44.00
2018-02-09T22:59:47.805Z,43.63
2018-02-09T23:02:15.370Z,41.42
2018-02-09T23:04:42.998Z,43.00
2018-02-09T23:07:11.369Z,40.78
2018-02-09T23:09:39.043Z,39.80
2018-02-09T23:12:06.581Z,38.10
2018-02-09T23:14:34.232Z,39.33
2018-02-09T23:17:01.865Z,43.35
2018-02-09T23:19:29.497Z,45.45
2018-02-09T23:21:57.826Z,43.92
2018-02-09T23:24:25.456Z,42.17
2018-02-09T23:26:53.074Z,40.80
2018-02-09T23:29:20.673Z,48.67
2018-02-09T23:31:48.289Z,50.35
2018-02-09T23:34:15.850Z,51.78
2018-02-09T23:36:43.443Z,47.05
2018-02-09T23:39:11.806Z,47.38
2018-02-09T23:41:39.364Z,45.42
2018-02-09T23:44:07.746Z,43.10
2018-02-09T23:46:36.107Z,43.22
2018-02-09T23:49:03.676Z,42.88
2018-02-09T23:51:31.267Z,44.25
2018-02-09T23:53:59.661Z,44.20
2018-02-09T23:56:27.272Z,39.85
2018-02-09T23:58:54.885Z,43.85
